sensor_id;sensor_type;location;lat;lon;timestamp;P1;durP1;ratioP1;P2;durP2;ratioP2
7539;SDS011;3811;49.006;12.076;2024-03-08T00:00:31;7.93;;;3.97;;
7539;SDS011;3811;49.006;12.076;2024-03-08T00:02:58;6.93;;;4.53;;
7539;SDS011;3811;49.006;12.076;2024-03-08T00:05:26;10.37;;;5.00;;
7539;SDS011;3811;49.006;12.076;2024-03-08T00:07:53;8.87;;;5.77;;
7539;SDS011;3811;49.006;12.076;2024-03-08T00:10:22;11.07;;;4.97;;
7539;SDS011;3811;49.006;12.076;2024-03-08T00:12:49;9.77;;;5.13;;
7539;SDS011;3811;49.006;12.076;2024-03-08T00:15:18;10.33;;;4.80;;
7539;SDS011;3811;49.006;12.076;2024-03-08T00:17:48;13.70;;;4.43;;
7539;SDS011;3811;49.006;12.076;2024-03-08T00:20:15;6.53;;;4.97;;
7539;SDS011;3811;49.006;12.076;2024-03-08T00:22:44;10.20;;;4.23;;
7539;SDS011;3811;49.006;12.076;2024-03-08T00:25:11;8.10;;;4.60;;
7539;SDS011;3811;49.006;12.076;2024-03-08T00:27:39;6.67;;;4.00;;
7539;SDS011;3811;49.006;12.076;2024-03-08T00:30:07;6.27;;;4.20;;
7539;SDS011;3811;49.006;12.076;2024-03-08T00:32:34;7.30;;;4.50;;
7539;SDS011;3811;49.006;12.076;2024-03-08T00:35:03;11.07;;;5.53;;
7539;SDS011;3811;49.006;12.076;2024-03-08T00:37:32;5.67;;;4.27;;
7539;SDS011;3811;49.006;12.076;2024-03-08T00:40:00;4.93;;;4.27;;
7539;SDS011;3811;49.006;12.076;2024-03-08T00:42:27;6.07;;;3.50;;
7539;SDS011;3811;49.006;12.076;2024-03-08T00:44:56;9.17;;;4.93;;
7539;SDS011;3811;49.006;12.076;2024-03-08T00:47:23;8.33;;;5.10;;
7539;SDS011;3811;49.006;12.076;2024-03-08T00:49:50;7.80;;;5.13;;
7539;SDS011;3811;49.006;12.076;2024-03-08T00:52:18;5.00;;;3.23;;
7539;SDS011;3811;49.006;12.076;2024-03-08T00:54:45;6.87;;;4.43;;
7539;SDS011;3811;49.006;12.076;2024-03-08T00:57:12;8.13;;;5.17;;
7539;SDS011;3811;49.006;12.076;2024-03-08T00:59:40;8.90;;;4.13;;
7539;SDS011;3811;49.006;12.076;2024-03-08T01:02:08;8.73;;;4.60;;
7539;SDS011;3811;49.006;12.076;2024-03-08T01:04:35;9.93;;;5.10;;
7539;SDS011;3811;49.006;12.076;2024-03-08T01:07:03;5.17;;;3.63;;
7539;SDS011;3811;49.006;12.076;2024-03-08T01:09:30;9.30;;;4.70;;
7539;SDS011;3811;49.006;12.076;2024-03-08T01:11:58;6.07;;;4.53;;
7539;SDS011;3811;49.006;12.076;2024-03-08T01:14:26;11.97;;;4.47;;
7539;SDS011;3811;49.006;12.076;2024-03-08T01:16:54;7.07;;;4.00;;
7539;SDS011;3811;49.006;12.076;2024-03-08T01:19:22;11.40;;;5.50;;
7539;SDS011;3811;49.006;12.076;2024-03-08T01:21:50;6.97;;;4.20;;
7539;SDS011;3811;49.006;12.076;2024-03-08T01:24:17;7.37;;;3.90;;
7539;SDS011;3811;49.006;12.076;2024-03-08T01:26:44;7.03;;;4.53;;
7539;SDS011;3811;49.006;12.076;2024-03-08T01:29:12;7.23;;;4.73;;
7539;SDS011;3811;49.006;12.076;2024-03-08T01:31:39;5.50;;;4.10;;
7539;SDS011;3811;49.006;12.076;2024-03-08T01:34:06;9.63;;;4.93;;
7539;SDS011;3811;49.006;12.076;2024-03-08T01:36:35;7.67;;;5.17;;
7539;SDS011;3811;49.006;12.076;2024-03-08T01:39:03;8.07;;;5.00;;
7539;SDS011;3811;49.006;12.076;2024-03-08T01:41:33;6.50;;;4.40;;
7539;SDS011;3811;49.006;12.076;2024-03-08T01:44:00;16.93;;;6.33;;
7539;SDS011;3811;49.006;12.076;2024-03-08T01:46:28;5.63;;;3.77;;
7539;SDS011;3811;49.006;12.076;2024-03-08T01:48:55;10.40;;;5.30;;
7539;SDS011;3811;49.006;12.076;2024-03-08T01:51:23;7.90;;;4.03;;
7539;SDS011;3811;49.006;12.076;2024-03-08T01:53:51;8.70;;;5.50;;
7539;SDS011;3811;49.006;12.076;2024-03-08T01:56:19;7.93;;;4.30;;
7539;SDS011;3811;49.006;12.076;2024-03-08T01:58:46;6.13;;;3.70;;
7539;SDS011;3811;49.006;12.076;2024-03-08T02:01:13;9.20;;;4.27;;
7539;SDS011;3811;49.006;12.076;2024-03-08T02:03:41;4.30;;;3.70;;
7539;SDS011;3811;49.006;12.076;2024-03-08T02:06:09;8.50;;;5.17;;
7539;SDS011;3811;49.006;12.076;2024-03-08T02:08:36;8.13;;;4.60;;
7539;SDS011;3811;49.006;12.076;2024-03-08T02:11:05;9.73;;;4.73;;
7539;SDS011;3811;49.006;12.076;2024-03-08T02:13:32;6.27;;;4.30;;
7539;SDS011;3811;49.006;12.076;2024-03-08T02:15:59;7.80;;;5.63;;
7539;SDS011;3811;49.006;12.076;2024-03-08T02:18:28;10.20;;;4.70;;
7539;SDS011;3811;49.006;12.076;2024-03-08T02:20:57;11.87;;;5.17;;
7539;SDS011;3811;49.006;12.076;2024-03-08T02:23:25;8.07;;;3.70;;
7539;SDS011;3811;49.006;12.076;2024-03-08T02:25:52;6.90;;;4.33;;
7539;SDS011;3811;49.006;12.076;2024-03-08T02:28:20;7.53;;;5.60;;
7539;SDS011;3811;49.006;12.076;2024-03-08T02:30:47;12.33;;;5.70;;
7539;SDS011;3811;49.006;12.076;2024-03-08T02:33:15;6.80;;;4.20;;
7539;SDS011;3811;49.006;12.076;2024-03-08T02:35:43;8.80;;;5.20;;
7539;SDS011;3811;49.006;12.076;2024-03-08T02:38:12;10.53;;;6.37;;
7539;SDS011;3811;49.006;12.076;2024-03-08T02:40:41;8.67;;;5.43;;
7539;SDS011;3811;49.006;12.076;2024-03-08T02:43:09;8.07;;;4.60;;
7539;SDS011;3811;49.006;12.076;2024-03-08T02:45:36;7.67;;;4.57;;
7539;SDS011;3811;49.006;12.076;2024-03-08T02:48:04;8.40;;;3.90;;
7539;SDS011;3811;49.006;12.076;2024-03-08T02:50:31;7.93;;;3.67;;
7539;SDS011;3811;49.006;12.076;2024-03-08T02:52:59;6.90;;;5.03;;
7539;SDS011;3811;49.006;12.076;2024-03-08T02:55:28;10.73;;;5.47;;
7539;SDS011;3811;49.006;12.076;2024-03-08T02:57:55;9.15;;;5.38;;
7539;SDS011;3811;49.006;12.076;2024-03-08T03:00:24;8.83;;;5.23;;
7539;SDS011;3811;49.006;12.076;2024-03-08T03:02:52;11.30;;;5.83;;
7539;SDS011;3811;49.006;12.076;2024-03-08T03:05:19;9.27;;;5.10;;
7539;SDS011;3811;49.006;12.076;2024-03-08T03:07:46;6.83;;;3.70;;
7539;SDS011;3811;49.006;12.076;2024-03-08T03:10:14;9.23;;;4.47;;
7539;SDS011;3811;49.006;12.076;2024-03-08T03:12:44;13.35;;;5.40;;
7539;SDS011;3811;49.006;12.076;2024-03-08T03:15:13;6.20;;;5.17;;
7539;SDS011;3811;49.006;12.076;2024-03-08T03:17:45;11.57;;;5.17;;
7539;SDS011;3811;49.006;12.076;2024-03-08T03:20:12;5.80;;;4.47;;
7539;SDS011;3811;49.006;12.076;2024-03-08T03:22:47;9.37;;;5.50;;
7539;SDS011;3811;49.006;12.076;2024-03-08T03:25:17;7.78;;;5.68;;
7539;SDS011;3811;49.006;12.076;2024-03-08T03:27:50;10.20;;;5.13;;
7539;SDS011;3811;49.006;12.076;2024-03-08T03:30:17;8.30;;;5.00;;
7539;SDS011;3811;49.006;12.076;2024-03-08T03:32:47;7.67;;;4.47;;
7539;SDS011;3811;49.006;12.076;2024-03-08T03:35:16;9.23;;;4.77;;
7539;SDS011;3811;49.006;12.076;2024-03-08T03:37:43;10.80;;;4.80;;
7539;SDS011;3811;49.006;12.076;2024-03-08T03:40:26;10.00;;;4.68;;
7539;SDS011;3811;49.006;12.076;2024-03-08T03:42:54;6.05;;;4.25;;
7539;SDS011;3811;49.006;12.076;2024-03-08T03:45:22;10.00;;;5.35;;
7539;SDS011;3811;49.006;12.076;2024-03-08T03:47:49;9.18;;;4.38;;
7539;SDS011;3811;49.006;12.076;2024-03-08T03:50:17;7.50;;;4.40;;
7539;SDS011;3811;49.006;12.076;2024-03-08T03:52:45;5.63;;;3.43;;
7539;SDS011;3811;49.006;12.076;2024-03-08T03:55:12;9.17;;;5.37;;
7539;SDS011;3811;49.006;12.076;2024-03-08T03:57:39;8.00;;;4.33;;
7539;SDS011;3811;49.006;12.076;2024-03-08T04:00:08;8.07;;;5.00;;
7539;SDS011;3811;49.006;12.076;2024-03-08T04:02:39;6.65;;;4.68;;
7539;SDS011;3811;49.006;12.076;2024-03-08T04:05:07;7.68;;;4.93;;
7539;SDS011;3811;49.006;12.076;2024-03-08T04:07:35;8.10;;;5.90;;
7539;SDS011;3811;49.006;12.076;2024-03-08T04:10:02;9.18;;;5.13;;
7539;SDS011;3811;49.006;12.076;2024-03-08T04:12:31;8.17;;;4.70;;
7539;SDS011;3811;49.006;12.076;2024-03-08T04:14:58;8.00;;;4.50;;
7539;SDS011;3811;49.006;12.076;2024-03-08T04:17:27;11.23;;;4.93;;
7539;SDS011;3811;49.006;12.076;2024-03-08T04:19:54;6.70;;;4.77;;
7539;SDS011;3811;49.006;12.076;2024-03-08T04:22:22;6.63;;;5.10;;
7539;SDS011;3811;49.006;12.076;2024-03-08T04:24:49;7.57;;;4.95;;
7539;SDS011;3811;49.006;12.076;2024-03-08T04:27:17;11.38;;;5.25;;
7539;SDS011;3811;49.006;12.076;2024-03-08T04:29:44;9.00;;;5.07;;
7539;SDS011;3811;49.006;12.076;2024-03-08T04:32:11;9.93;;;5.65;;
7539;SDS011;3811;49.006;12.076;2024-03-08T04:34:40;7.82;;;5.25;;
7539;SDS011;3811;49.006;12.076;2024-03-08T04:37:07;8.93;;;5.43;;
7539;SDS011;3811;49.006;12.076;2024-03-08T04:39:38;6.43;;;4.93;;
7539;SDS011;3811;49.006;12.076;2024-03-08T04:42:05;10.60;;;5.70;;
7539;SDS011;3811;49.006;12.076;2024-03-08T04:44:36;8.45;;;4.47;;
7539;SDS011;3811;49.006;12.076;2024-03-08T04:47:04;7.53;;;5.53;;
7539;SDS011;3811;49.006;12.076;2024-03-08T04:49:32;7.43;;;4.37;;
7539;SDS011;3811;49.006;12.076;2024-03-08T04:52:01;7.17;;;4.70;;
7539;SDS011;3811;49.006;12.076;2024-03-08T04:54:29;7.25;;;4.50;;
7539;SDS011;3811;49.006;12.076;2024-03-08T04:56:56;8.30;;;5.13;;
7539;SDS011;3811;49.006;12.076;2024-03-08T04:59:25;9.05;;;4.68;;
7539;SDS011;3811;49.006;12.076;2024-03-08T05:01:53;10.63;;;5.50;;
7539;SDS011;3811;49.006;12.076;2024-03-08T05:04:20;7.72;;;4.80;;
7539;SDS011;3811;49.006;12.076;2024-03-08T05:06:47;9.63;;;5.25;;
7539;SDS011;3811;49.006;12.076;2024-03-08T05:09:16;12.07;;;5.20;;
7539;SDS011;3811;49.006;12.076;2024-03-08T05:11:44;7.00;;;5.05;;
7539;SDS011;3811;49.006;12.076;2024-03-08T05:14:12;9.63;;;6.10;;
7539;SDS011;3811;49.006;12.076;2024-03-08T05:16:41;9.20;;;5.47;;
7539;SDS011;3811;49.006;12.076;2024-03-08T05:19:09;10.43;;;5.53;;
7539;SDS011;3811;49.006;12.076;2024-03-08T05:21:36;9.40;;;5.05;;
7539;SDS011;3811;49.006;12.076;2024-03-08T05:24:04;6.57;;;5.50;;
7539;SDS011;3811;49.006;12.076;2024-03-08T05:26:33;8.32;;;4.90;;
7539;SDS011;3811;49.006;12.076;2024-03-08T05:29:00;10.20;;;4.77;;
7539;SDS011;3811;49.006;12.076;2024-03-08T05:31:28;6.88;;;4.32;;
7539;SDS011;3811;49.006;12.076;2024-03-08T05:33:57;4.90;;;3.65;;
7539;SDS011;3811;49.006;12.076;2024-03-08T05:36:24;8.38;;;4.55;;
7539;SDS011;3811;49.006;12.076;2024-03-08T05:38:51;7.70;;;4.30;;
7539;SDS011;3811;49.006;12.076;2024-03-08T05:41:19;8.60;;;4.30;;
7539;SDS011;3811;49.006;12.076;2024-03-08T05:43:48;11.77;;;5.18;;
7539;SDS011;3811;49.006;12.076;2024-03-08T05:46:15;12.55;;;4.50;;
7539;SDS011;3811;49.006;12.076;2024-03-08T05:48:43;8.02;;;5.90;;
7539;SDS011;3811;49.006;12.076;2024-03-08T05:51:10;4.97;;;3.25;;
7539;SDS011;3811;49.006;12.076;2024-03-08T05:53:38;7.28;;;4.53;;
7539;SDS011;3811;49.006;12.076;2024-03-08T05:56:05;6.68;;;4.03;;
7539;SDS011;3811;49.006;12.076;2024-03-08T05:58:34;5.93;;;4.60;;
7539;SDS011;3811;49.006;12.076;2024-03-08T06:01:03;10.32;;;4.95;;
7539;SDS011;3811;49.006;12.076;2024-03-08T06:03:33;8.25;;;5.07;;
7539;SDS011;3811;49.006;12.076;2024-03-08T06:06:00;11.20;;;4.90;;
7539;SDS011;3811;49.006;12.076;2024-03-08T06:08:27;5.50;;;3.72;;
7539;SDS011;3811;49.006;12.076;2024-03-08T06:10:55;9.73;;;5.80;;
7539;SDS011;3811;49.006;12.076;2024-03-08T06:13:24;10.90;;;5.32;;
7539;SDS011;3811;49.006;12.076;2024-03-08T06:15:51;10.68;;;5.68;;
7539;SDS011;3811;49.006;12.076;2024-03-08T06:18:20;8.18;;;4.38;;
7539;SDS011;3811;49.006;12.076;2024-03-08T06:20:47;9.93;;;6.50;;
7539;SDS011;3811;49.006;12.076;2024-03-08T06:23:14;10.45;;;5.85;;
7539;SDS011;3811;49.006;12.076;2024-03-08T06:25:42;9.27;;;5.17;;
7539;SDS011;3811;49.006;12.076;2024-03-08T06:28:10;7.30;;;5.00;;
7539;SDS011;3811;49.006;12.076;2024-03-08T06:30:37;5.47;;;4.78;;
7539;SDS011;3811;49.006;12.076;2024-03-08T06:33:04;6.38;;;4.20;;
7539;SDS011;3811;49.006;12.076;2024-03-08T06:35:33;6.45;;;5.20;;
7539;SDS011;3811;49.006;12.076;2024-03-08T06:38:03;7.67;;;5.33;;
7539;SDS011;3811;49.006;12.076;2024-03-08T06:40:30;8.63;;;4.03;;
7539;SDS011;3811;49.006;12.076;2024-03-08T06:42:57;9.90;;;4.67;;
7539;SDS011;3811;49.006;12.076;2024-03-08T06:45:24;12.35;;;4.95;;
7539;SDS011;3811;49.006;12.076;2024-03-08T06:47:51;11.57;;;5.87;;
7539;SDS011;3811;49.006;12.076;2024-03-08T06:50:20;10.33;;;5.27;;
7539;SDS011;3811;49.006;12.076;2024-03-08T06:52:48;6.50;;;4.90;;
7539;SDS011;3811;49.006;12.076;2024-03-08T06:55:19;12.30;;;5.27;;
7539;SDS011;3811;49.006;12.076;2024-03-08T06:57:46;9.97;;;4.30;;
7539;SDS011;3811;49.006;12.076;2024-03-08T07:00:13;13.03;;;7.10;;
7539;SDS011;3811;49.006;12.076;2024-03-08T07:02:43;11.13;;;5.60;;
7539;SDS011;3811;49.006;12.076;2024-03-08T07:05:11;11.07;;;5.60;;
7539;SDS011;3811;49.006;12.076;2024-03-08T07:07:38;11.03;;;5.57;;
7539;SDS011;3811;49.006;12.076;2024-03-08T07:10:08;13.07;;;5.67;;
7539;SDS011;3811;49.006;12.076;2024-03-08T07:12:37;11.67;;;6.30;;
7539;SDS011;3811;49.006;12.076;2024-03-08T07:15:05;20.33;;;5.43;;
7539;SDS011;3811;49.006;12.076;2024-03-08T07:17:32;13.73;;;6.47;;
7539;SDS011;3811;49.006;12.076;2024-03-08T07:20:00;10.67;;;6.63;;
7539;SDS011;3811;49.006;12.076;2024-03-08T07:22:33;10.27;;;4.90;;
7539;SDS011;3811;49.006;12.076;2024-03-08T07:25:02;12.83;;;5.10;;
7539;SDS011;3811;49.006;12.076;2024-03-08T07:27:46;13.83;;;4.60;;
7539;SDS011;3811;49.006;12.076;2024-03-08T07:30:13;11.93;;;6.87;;
7539;SDS011;3811;49.006;12.076;2024-03-08T07:33:02;10.47;;;5.80;;
7539;SDS011;3811;49.006;12.076;2024-03-08T07:35:29;13.50;;;6.83;;
7539;SDS011;3811;49.006;12.076;2024-03-08T07:37:57;10.70;;;5.60;;
7539;SDS011;3811;49.006;12.076;2024-03-08T07:40:25;12.03;;;6.63;;
7539;SDS011;3811;49.006;12.076;2024-03-08T07:42:53;14.00;;;6.07;;
7539;SDS011;3811;49.006;12.076;2024-03-08T07:45:20;7.90;;;4.40;;
7539;SDS011;3811;49.006;12.076;2024-03-08T07:47:48;9.67;;;5.30;;
7539;SDS011;3811;49.006;12.076;2024-03-08T07:50:15;9.37;;;4.43;;
7539;SDS011;3811;49.006;12.076;2024-03-08T07:52:44;7.87;;;4.03;;
7539;SDS011;3811;49.006;12.076;2024-03-08T07:55:11;7.57;;;4.67;;
7539;SDS011;3811;49.006;12.076;2024-03-08T07:57:39;9.17;;;4.47;;
7539;SDS011;3811;49.006;12.076;2024-03-08T08:00:09;10.33;;;4.37;;
7539;SDS011;3811;49.006;12.076;2024-03-08T08:02:42;5.67;;;4.13;;
7539;SDS011;3811;49.006;12.076;2024-03-08T08:05:10;5.70;;;4.07;;
7539;SDS011;3811;49.006;12.076;2024-03-08T08:07:38;8.97;;;4.00;;
7539;SDS011;3811;49.006;12.076;2024-03-08T08:10:09;8.47;;;4.03;;
7539;SDS011;3811;49.006;12.076;2024-03-08T08:12:42;7.23;;;4.50;;
7539;SDS011;3811;49.006;12.076;2024-03-08T08:15:10;7.27;;;4.13;;
7539;SDS011;3811;49.006;12.076;2024-03-08T08:17:38;7.60;;;4.87;;
7539;SDS011;3811;49.006;12.076;2024-03-08T08:20:05;7.77;;;4.57;;
7539;SDS011;3811;49.006;12.076;2024-03-08T08:22:33;5.87;;;4.67;;
7539;SDS011;3811;49.006;12.076;2024-03-08T08:25:00;8.33;;;3.77;;
7539;SDS011;3811;49.006;12.076;2024-03-08T08:27:28;5.13;;;3.10;;
7539;SDS011;3811;49.006;12.076;2024-03-08T08:29:55;8.23;;;5.23;;
7539;SDS011;3811;49.006;12.076;2024-03-08T08:32:24;6.73;;;4.33;;
7539;SDS011;3811;49.006;12.076;2024-03-08T08:34:51;5.77;;;4.27;;
7539;SDS011;3811;49.006;12.076;2024-03-08T08:37:19;5.97;;;4.17;;
7539;SDS011;3811;49.006;12.076;2024-03-08T08:39:47;6.57;;;3.40;;
7539;SDS011;3811;49.006;12.076;2024-03-08T08:42:16;9.50;;;4.83;;
7539;SDS011;3811;49.006;12.076;2024-03-08T08:44:43;5.60;;;3.83;;
7539;SDS011;3811;49.006;12.076;2024-03-08T08:47:11;8.73;;;4.80;;
7539;SDS011;3811;49.006;12.076;2024-03-08T08:49:40;7.23;;;4.00;;
7539;SDS011;3811;49.006;12.076;2024-03-08T08:52:08;5.70;;;3.27;;
7539;SDS011;3811;49.006;12.076;2024-03-08T08:54:35;6.97;;;4.30;;
7539;SDS011;3811;49.006;12.076;2024-03-08T08:57:02;7.63;;;5.43;;
7539;SDS011;3811;49.006;12.076;2024-03-08T08:59:33;5.97;;;4.73;;
7539;SDS011;3811;49.006;12.076;2024-03-08T09:02:01;7.97;;;4.63;;
7539;SDS011;3811;49.006;12.076;2024-03-08T09:04:28;5.70;;;3.77;;
7539;SDS011;3811;49.006;12.076;2024-03-08T09:06:57;8.57;;;5.17;;
7539;SDS011;3811;49.006;12.076;2024-03-08T09:09:26;5.67;;;3.80;;
7539;SDS011;3811;49.006;12.076;2024-03-08T09:11:54;5.50;;;4.13;;
7539;SDS011;3811;49.006;12.076;2024-03-08T09:14:22;7.53;;;4.70;;
7539;SDS011;3811;49.006;12.076;2024-03-08T09:16:51;5.30;;;4.77;;
7539;SDS011;3811;49.006;12.076;2024-03-08T09:19:18;8.53;;;4.77;;
7539;SDS011;3811;49.006;12.076;2024-03-08T09:21:45;6.37;;;4.40;;
7539;SDS011;3811;49.006;12.076;2024-03-08T09:24:14;6.77;;;4.07;;
7539;SDS011;3811;49.006;12.076;2024-03-08T09:26:41;7.50;;;5.63;;
7539;SDS011;3811;49.006;12.076;2024-03-08T09:29:08;5.10;;;4.60;;
7539;SDS011;3811;49.006;12.076;2024-03-08T09:31:36;6.80;;;4.80;;
7539;SDS011;3811;49.006;12.076;2024-03-08T09:34:04;5.13;;;4.20;;
7539;SDS011;3811;49.006;12.076;2024-03-08T09:36:33;8.07;;;5.23;;
7539;SDS011;3811;49.006;12.076;2024-03-08T09:39:01;7.10;;;5.00;;
7539;SDS011;3811;49.006;12.076;2024-03-08T09:41:30;7.27;;;4.60;;
7539;SDS011;3811;49.006;12.076;2024-03-08T09:43:57;4.87;;;3.70;;
7539;SDS011;3811;49.006;12.076;2024-03-08T09:46:25;4.77;;;3.77;;
7539;SDS011;3811;49.006;12.076;2024-03-08T09:48:52;6.93;;;4.63;;
7539;SDS011;3811;49.006;12.076;2024-03-08T09:51:20;8.30;;;5.47;;
7539;SDS011;3811;49.006;12.076;2024-03-08T09:53:49;7.10;;;5.50;;
7539;SDS011;3811;49.006;12.076;2024-03-08T09:56:16;7.13;;;5.33;;
7539;SDS011;3811;49.006;12.076;2024-03-08T09:58:44;7.77;;;4.87;;
7539;SDS011;3811;49.006;12.076;2024-03-08T10:01:39;9.53;;;6.07;;
7539;SDS011;3811;49.006;12.076;2024-03-08T10:04:07;4.73;;;4.33;;
7539;SDS011;3811;49.006;12.076;2024-03-08T10:06:35;6.97;;;4.47;;
7539;SDS011;3811;49.006;12.076;2024-03-08T10:09:02;7.17;;;4.93;;
7539;SDS011;3811;49.006;12.076;2024-03-08T10:11:31;7.93;;;5.33;;
7539;SDS011;3811;49.006;12.076;2024-03-08T10:13:59;7.93;;;4.37;;
7539;SDS011;3811;49.006;12.076;2024-03-08T10:16:27;8.27;;;5.20;;
7539;SDS011;3811;49.006;12.076;2024-03-08T10:18:55;6.40;;;5.63;;
7539;SDS011;3811;49.006;12.076;2024-03-08T10:21:23;8.47;;;5.23;;
7539;SDS011;3811;49.006;12.076;2024-03-08T10:23:50;6.80;;;5.13;;
7539;SDS011;3811;49.006;12.076;2024-03-08T10:26:18;5.53;;;5.00;;
7539;SDS011;3811;49.006;12.076;2024-03-08T10:28:47;6.60;;;5.03;;
7539;SDS011;3811;49.006;12.076;2024-03-08T10:31:15;7.20;;;4.83;;
7539;SDS011;3811;49.006;12.076;2024-03-08T10:33:43;7.37;;;4.70;;
7539;SDS011;3811;49.006;12.076;2024-03-08T10:36:10;9.50;;;6.13;;
7539;SDS011;3811;49.006;12.076;2024-03-08T10:38:38;9.13;;;4.87;;
7539;SDS011;3811;49.006;12.076;2024-03-08T10:41:07;7.07;;;4.50;;
7539;SDS011;3811;49.006;12.076;2024-03-08T10:43:38;6.07;;;4.83;;
7539;SDS011;3811;49.006;12.076;2024-03-08T10:46:12;6.27;;;4.90;;
7539;SDS011;3811;49.006;12.076;2024-03-08T10:48:45;8.43;;;5.60;;
7539;SDS011;3811;49.006;12.076;2024-03-08T10:51:16;8.33;;;4.93;;
7539;SDS011;3811;49.006;12.076;2024-03-08T10:53:43;7.40;;;4.27;;
7539;SDS011;3811;49.006;12.076;2024-03-08T10:56:12;6.63;;;5.27;;
7539;SDS011;3811;49.006;12.076;2024-03-08T10:58:39;7.57;;;5.60;;
7539;SDS011;3811;49.006;12.076;2024-03-08T11:01:09;7.40;;;5.37;;
7539;SDS011;3811;49.006;12.076;2024-03-08T11:03:43;7.23;;;4.73;;
7539;SDS011;3811;49.006;12.076;2024-03-08T11:06:15;6.53;;;5.23;;
7539;SDS011;3811;49.006;12.076;2024-03-08T11:08:42;8.17;;;5.67;;
7539;SDS011;3811;49.006;12.076;2024-03-08T11:11:23;7.80;;;5.70;;
7539;SDS011;3811;49.006;12.076;2024-03-08T11:13:52;6.60;;;4.50;;
7539;SDS011;3811;49.006;12.076;2024-03-08T11:19:05;5.30;;;4.50;;
7539;SDS011;3811;49.006;12.076;2024-03-08T11:21:56;8.13;;;5.33;;
7539;SDS011;3811;49.006;12.076;2024-03-08T11:24:23;6.57;;;5.37;;
7539;SDS011;3811;49.006;12.076;2024-03-08T11:26:54;7.00;;;5.10;;
7539;SDS011;3811;49.006;12.076;2024-03-08T11:29:32;7.23;;;5.43;;
7539;SDS011;3811;49.006;12.076;2024-03-08T11:32:05;9.67;;;5.17;;
7539;SDS011;3811;49.006;12.076;2024-03-08T11:34:32;6.70;;;4.90;;
7539;SDS011;3811;49.006;12.076;2024-03-08T11:37:00;5.87;;;4.80;;
7539;SDS011;3811;49.006;12.076;2024-03-08T11:39:30;6.60;;;4.50;;
7539;SDS011;3811;49.006;12.076;2024-03-08T11:41:57;5.77;;;4.87;;
7539;SDS011;3811;49.006;12.076;2024-03-08T11:44:26;8.00;;;4.20;;
7539;SDS011;3811;49.006;12.076;2024-03-08T11:46:57;6.07;;;4.73;;
7539;SDS011;3811;49.006;12.076;2024-03-08T11:49:25;6.17;;;4.20;;
7539;SDS011;3811;49.006;12.076;2024-03-08T11:51:53;6.07;;;4.20;;
7539;SDS011;3811;49.006;12.076;2024-03-08T11:54:22;6.70;;;5.07;;
7539;SDS011;3811;49.006;12.076;2024-03-08T11:56:51;6.60;;;5.03;;
7539;SDS011;3811;49.006;12.076;2024-03-08T11:59:20;6.00;;;4.40;;
7539;SDS011;3811;49.006;12.076;2024-03-08T12:01:58;6.67;;;4.57;;
7539;SDS011;3811;49.006;12.076;2024-03-08T12:04:27;6.33;;;4.40;;
7539;SDS011;3811;49.006;12.076;2024-03-08T12:06:54;6.23;;;4.93;;
7539;SDS011;3811;49.006;12.076;2024-03-08T12:09:23;6.43;;;4.03;;
7539;SDS011;3811;49.006;12.076;2024-03-08T12:11:50;5.50;;;3.97;;
7539;SDS011;3811;49.006;12.076;2024-03-08T12:14:17;6.47;;;3.87;;
7539;SDS011;3811;49.006;12.076;2024-03-08T12:16:46;5.27;;;4.30;;
7539;SDS011;3811;49.006;12.076;2024-03-08T12:19:15;7.43;;;4.40;;
7539;SDS011;3811;49.006;12.076;2024-03-08T12:21:42;5.90;;;4.13;;
7539;SDS011;3811;49.006;12.076;2024-03-08T12:24:14;5.27;;;3.90;;
7539;SDS011;3811;49.006;12.076;2024-03-08T12:26:43;5.90;;;4.50;;
7539;SDS011;3811;49.006;12.076;2024-03-08T12:29:14;4.90;;;4.23;;
7539;SDS011;3811;49.006;12.076;2024-03-08T12:31:43;4.93;;;3.90;;
7539;SDS011;3811;49.006;12.076;2024-03-08T12:34:11;3.80;;;3.40;;
7539;SDS011;3811;49.006;12.076;2024-03-08T12:36:43;4.60;;;4.07;;
7539;SDS011;3811;49.006;12.076;2024-03-08T12:39:12;3.80;;;3.50;;
7539;SDS011;3811;49.006;12.076;2024-03-08T12:41:43;4.27;;;2.63;;
7539;SDS011;3811;49.006;12.076;2024-03-08T12:44:13;3.83;;;2.90;;
7539;SDS011;3811;49.006;12.076;2024-03-08T12:46:40;3.97;;;3.33;;
7539;SDS011;3811;49.006;12.076;2024-03-08T12:49:09;4.10;;;3.03;;
7539;SDS011;3811;49.006;12.076;2024-03-08T12:51:37;4.23;;;3.10;;
7539;SDS011;3811;49.006;12.076;2024-03-08T12:54:07;3.20;;;2.90;;
7539;SDS011;3811;49.006;12.076;2024-03-08T12:56:34;5.07;;;3.83;;
7539;SDS011;3811;49.006;12.076;2024-03-08T12:59:06;6.27;;;2.70;;
7539;SDS011;3811;49.006;12.076;2024-03-08T13:01:35;3.70;;;3.17;;
7539;SDS011;3811;49.006;12.076;2024-03-08T13:04:03;5.03;;;3.20;;
7539;SDS011;3811;49.006;12.076;2024-03-08T13:06:31;4.30;;;3.27;;
7539;SDS011;3811;49.006;12.076;2024-03-08T13:08:59;4.57;;;3.63;;
7539;SDS011;3811;49.006;12.076;2024-03-08T13:11:30;5.53;;;3.30;;
7539;SDS011;3811;49.006;12.076;2024-03-08T13:14:02;3.70;;;3.33;;
7539;SDS011;3811;49.006;12.076;2024-03-08T13:16:30;3.80;;;3.17;;
7539;SDS011;3811;49.006;12.076;2024-03-08T13:19:00;3.40;;;3.07;;
7539;SDS011;3811;49.006;12.076;2024-03-08T13:21:27;3.90;;;3.37;;
7539;SDS011;3811;49.006;12.076;2024-03-08T13:23:55;3.13;;;2.83;;
7539;SDS011;3811;49.006;12.076;2024-03-08T13:26:24;3.80;;;3.50;;
7539;SDS011;3811;49.006;12.076;2024-03-08T13:28:57;5.47;;;3.80;;
7539;SDS011;3811;49.006;12.076;2024-03-08T13:31:25;4.83;;;3.20;;
7539;SDS011;3811;49.006;12.076;2024-03-08T13:33:54;3.10;;;2.77;;
7539;SDS011;3811;49.006;12.076;2024-03-08T13:36:23;6.20;;;4.13;;
7539;SDS011;3811;49.006;12.076;2024-03-08T13:38:54;3.60;;;3.30;;
7539;SDS011;3811;49.006;12.076;2024-03-08T13:41:24;3.33;;;3.03;;
7539;SDS011;3811;49.006;12.076;2024-03-08T13:43:51;5.03;;;3.13;;
7539;SDS011;3811;49.006;12.076;2024-03-08T13:46:21;4.87;;;3.77;;
7539;SDS011;3811;49.006;12.076;2024-03-08T13:48:49;3.70;;;3.10;;
7539;SDS011;3811;49.006;12.076;2024-03-08T13:51:20;5.73;;;4.13;;
7539;SDS011;3811;49.006;12.076;2024-03-08T13:53:47;4.23;;;3.00;;
7539;SDS011;3811;49.006;12.076;2024-03-08T13:56:15;3.27;;;2.77;;
7539;SDS011;3811;49.006;12.076;2024-03-08T13:58:42;3.80;;;3.23;;
7539;SDS011;3811;49.006;12.076;2024-03-08T14:01:09;4.40;;;3.40;;
7539;SDS011;3811;49.006;12.076;2024-03-08T14:03:37;4.40;;;3.27;;
7539;SDS011;3811;49.006;12.076;2024-03-08T14:06:07;4.37;;;3.50;;
7539;SDS011;3811;49.006;12.076;2024-03-08T14:08:36;4.57;;;3.13;;
7539;SDS011;3811;49.006;12.076;2024-03-08T14:11:04;3.27;;;2.97;;
7539;SDS011;3811;49.006;12.076;2024-03-08T14:13:40;4.10;;;3.30;;
7539;SDS011;3811;49.006;12.076;2024-03-08T14:16:10;4.20;;;2.53;;
7539;SDS011;3811;49.006;12.076;2024-03-08T14:18:38;5.07;;;3.40;;
7539;SDS011;3811;49.006;12.076;2024-03-08T14:21:05;4.67;;;3.37;;
7539;SDS011;3811;49.006;12.076;2024-03-08T14:23:33;5.90;;;3.27;;
7539;SDS011;3811;49.006;12.076;2024-03-08T14:26:02;3.37;;;3.07;;
7539;SDS011;3811;49.006;12.076;2024-03-08T14:28:32;4.67;;;2.87;;
7539;SDS011;3811;49.006;12.076;2024-03-08T14:30:59;3.60;;;3.00;;
7539;SDS011;3811;49.006;12.076;2024-03-08T14:33:28;5.70;;;3.60;;
7539;SDS011;3811;49.006;12.076;2024-03-08T14:35:56;5.40;;;3.43;;
7539;SDS011;3811;49.006;12.076;2024-03-08T14:38:23;4.07;;;3.07;;
7539;SDS011;3811;49.006;12.076;2024-03-08T14:40:52;3.83;;;3.10;;
7539;SDS011;3811;49.006;12.076;2024-03-08T14:43:21;3.77;;;3.00;;
7539;SDS011;3811;49.006;12.076;2024-03-08T14:45:49;2.93;;;2.63;;
7539;SDS011;3811;49.006;12.076;2024-03-08T14:48:17;2.57;;;2.37;;
7539;SDS011;3811;49.006;12.076;2024-03-08T14:50:45;4.13;;;2.83;;
7539;SDS011;3811;49.006;12.076;2024-03-08T14:53:13;4.43;;;3.37;;
7539;SDS011;3811;49.006;12.076;2024-03-08T14:55:40;2.83;;;2.40;;
7539;SDS011;3811;49.006;12.076;2024-03-08T14:58:09;3.17;;;2.60;;
7539;SDS011;3811;49.006;12.076;2024-03-08T15:00:37;3.20;;;2.43;;
7539;SDS011;3811;49.006;12.076;2024-03-08T15:03:07;3.70;;;3.20;;
7539;SDS011;3811;49.006;12.076;2024-03-08T15:05:38;3.30;;;2.90;;
7539;SDS011;3811;49.006;12.076;2024-03-08T15:08:07;2.47;;;2.23;;
7539;SDS011;3811;49.006;12.076;2024-03-08T15:10:44;2.77;;;2.57;;